CheckWX is a tool to help pilots better visualize weather data.  It is not intended as a substitute for an official pre-flight weather briefing.

10:07:48 UTC

MMMD TAF
Licenciado Manuel Crescencio Rejon Int Airport
Mérida, Mexico
TAF MMMD 260407Z 2606/2712 11015KT P6SM SKC TX38/2620Z TN25/2612Z FM260800 12008KT P6SM SKC FM261600 13012KT P6SM SCT020 FM270300 13015KT P6SM SCT020

Jun-26@
06:00 UTC

Jun-26 @ 06:00 UTC

Jun-26@
08:00 UTC

Jun-26 @ 08:00 UTC

TAF MMMD 260407Z 2606/2712 11015KT P6SM SKC TX38/2620Z TN25/2612Z

Expired

Wind
  • 110° at 15 KTS
Cloud Levels
  • Clear skies

Jun-26@
08:00 UTC

Jun-26 @ 08:00 UTC

Jun-26@
16:00 UTC

Jun-26 @ 16:00 UTC

FM260800 12008KT P6SM SKC

From

From Standard forecast or significant change

Wind
  • 120° at 8 KTS
Cloud Levels
  • Clear skies

Jun-26@
16:00 UTC

Jun-26 @ 16:00 UTC

Jun-27@
03:00 UTC

Jun-27 @ 03:00 UTC

FM261600 13012KT P6SM SCT020

From

From Standard forecast or significant change

Wind
  • 130° at 12 KTS
Cloud Levels
  • Scattered at 2,000' AGL

Jun-27@
03:00 UTC

Jun-27 @ 03:00 UTC

Jun-27@
12:00 UTC

Jun-27 @ 12:00 UTC

FM270300 13015KT P6SM SCT020

From

From Standard forecast or significant change

Wind
  • 130° at 15 KTS
Cloud Levels
  • Scattered at 2,000' AGL